createdAt,value
2019-01-17T05:03:52.815Z,4.27124
2019-01-17T05:07:20.725Z,4.301453
2019-01-17T05:10:48.607Z,4.311523
2019-01-17T05:14:16.537Z,4.351807
2019-01-17T05:17:44.409Z,4.361877
2019-01-17T05:21:12.309Z,4.361877
2019-01-17T05:24:40.197Z,4.39209
2019-01-17T05:28:08.062Z,4.452515
2019-01-17T05:31:35.965Z,4.482727
2019-01-17T05:35:03.858Z,4.462585
2019-01-17T05:38:31.726Z,4.492798
2019-01-17T05:41:59.618Z,4.512939
2019-01-17T05:45:27.510Z,4.512939
2019-01-17T05:48:55.376Z,4.482727
2019-01-17T05:52:23.274Z,4.482727
2019-01-17T05:55:51.151Z,4.432373
2019-01-17T05:59:19.016Z,4.361877
2019-01-17T06:02:46.908Z,4.281311
2019-01-17T06:06:14.795Z,4.301453
2019-01-17T06:09:42.662Z,4.210815
2019-01-17T06:13:10.550Z,4.230957
2019-01-17T06:16:38.418Z,4.210815
2019-01-17T06:20:06.415Z,4.200745
2019-01-17T06:23:34.295Z,4.130249
2019-01-17T06:27:02.282Z,4.160461
2019-01-17T06:30:30.156Z,4.089966
2019-01-17T06:33:59.031Z,4.01947
2019-01-17T06:37:26.913Z,3.999329
2019-01-17T06:40:54.807Z,3.979187
2019-01-17T06:44:22.703Z,3.979187
2019-01-17T06:47:50.594Z,3.989258
2019-01-17T06:51:18.468Z,4.01947
2019-01-17T06:54:46.358Z,4.029541
2019-01-17T06:58:14.248Z,4.059753
2019-01-17T07:01:42.121Z,4.100037
2019-01-17T07:05:10.010Z,4.130249
2019-01-17T07:08:37.891Z,4.230957
2019-01-17T07:12:06.759Z,4.281311
2019-01-17T07:15:34.653Z,4.301453
2019-01-17T07:19:02.545Z,4.241028
2019-01-17T07:22:30.424Z,4.311523
2019-01-17T07:25:58.315Z,4.281311
2019-01-17T07:29:26.202Z,4.241028
2019-01-17T07:32:54.090Z,4.241028
2019-01-17T07:36:21.961Z,4.230957
2019-01-17T07:39:49.844Z,4.261169
2019-01-17T07:43:17.758Z,4.27124
2019-01-17T07:46:45.626Z,4.301453
2019-01-17T07:50:13.508Z,4.241028
2019-01-17T07:53:41.403Z,4.27124
2019-01-17T07:57:09.266Z,4.241028
2019-01-17T08:00:37.165Z,4.301453
2019-01-17T08:04:05.054Z,4.341736
2019-01-17T08:07:32.925Z,4.382019
2019-01-17T08:11:01.809Z,4.412231
2019-01-17T08:14:29.686Z,4.382019
2019-01-17T08:17:58.547Z,4.382019
2019-01-17T08:21:27.421Z,4.432373
2019-01-17T08:24:55.297Z,4.462585
2019-01-17T08:28:24.162Z,4.482727
2019-01-17T08:31:52.051Z,4.563293
2019-01-17T08:35:19.935Z,4.593506
2019-01-17T08:38:47.805Z,4.603577
2019-01-17T08:42:16.684Z,4.64386
2019-01-17T08:45:44.570Z,4.603577
2019-01-17T08:49:12.444Z,4.613647
2019-01-17T08:52:40.332Z,4.603577
2019-01-17T08:56:08.228Z,4.603577
2019-01-17T08:59:37.092Z,4.533081
2019-01-17T09:03:04.971Z,4.462585
2019-01-17T09:06:33.846Z,4.533081
2019-01-17T09:10:01.722Z,4.593506
2019-01-17T09:13:29.626Z,4.784851
2019-01-17T09:16:57.506Z,4.815063
2019-01-17T09:20:25.396Z,4.845276
2019-01-17T09:23:53.282Z,4.845276
2019-01-17T09:27:21.171Z,4.825134
2019-01-17T09:30:49.068Z,4.845276
2019-01-17T09:34:16.941Z,4.875488
2019-01-17T09:37:44.831Z,4.905701
2019-01-17T09:41:12.718Z,4.935913
2019-01-17T09:44:40.612Z,4.935913
2019-01-17T09:48:08.497Z,4.996338
2019-01-17T09:51:36.390Z,5.056763
2019-01-17T09:55:04.373Z,5.107117
2019-01-17T09:58:32.252Z,5.117188
2019-01-17T10:02:00.133Z,5.117188
2019-01-17T10:05:28.021Z,5.1474
2019-01-17T10:08:55.888Z,5.137329
2019-01-17T10:12:23.775Z,5.177612
2019-01-17T10:15:51.659Z,5.157471
2019-01-17T10:19:19.530Z,5.117188
2019-01-17T10:22:47.417Z,5.177612
2019-01-17T10:26:20.980Z,5.187683
2019-01-17T10:29:46.169Z,5.187683
2019-01-17T10:33:15.050Z,5.238037
2019-01-17T10:36:42.939Z,5.248108
2019-01-17T10:40:10.805Z,5.217896
2019-01-17T10:43:38.699Z,5.217896
2019-01-17T10:47:06.589Z,5.157471
2019-01-17T10:50:35.451Z,5.1474
2019-01-17T10:54:03.339Z,5.137329
2019-01-17T10:57:31.208Z,5.157471
2019-01-17T11:00:59.217Z,5.1474
2019-01-17T11:04:27.102Z,5.187683
2019-01-17T11:07:54.985Z,5.26825
2019-01-17T11:11:22.862Z,5.328674
2019-01-17T11:14:51.742Z,5.39917
2019-01-17T11:18:19.619Z,5.409241
2019-01-17T11:21:47.509Z,5.39917
2019-01-17T11:25:15.394Z,5.409241
2019-01-17T11:28:43.264Z,5.39917
2019-01-17T11:32:11.150Z,5.389099
2019-01-17T11:35:39.042Z,5.389099
2019-01-17T11:39:06.917Z,5.368958
2019-01-17T11:42:34.810Z,5.358887
2019-01-17T11:46:02.698Z,5.328674
2019-01-17T11:49:30.572Z,5.338745
2019-01-17T11:52:58.450Z,5.368958
2019-01-17T11:56:26.332Z,5.358887
2019-01-17T11:59:54.198Z,5.368958
2019-01-17T12:03:22.089Z,5.368958
2019-01-17T12:06:49.977Z,5.389099
2019-01-17T12:10:17.860Z,5.39917
2019-01-17T12:13:45.747Z,5.439453
2019-01-17T12:17:14.625Z,5.469666
2019-01-17T12:20:42.500Z,5.509949
2019-01-17T12:24:10.388Z,5.550232
2019-01-17T12:27:42.599Z,5.540161
2019-01-17T12:31:09.128Z,5.580444
2019-01-17T12:34:37.016Z,5.620728
2019-01-17T12:38:04.905Z,5.620728
2019-01-17T12:41:32.769Z,5.610657
2019-01-17T12:45:00.681Z,5.580444
2019-01-17T12:48:28.563Z,5.550232
2019-01-17T12:51:56.451Z,5.540161
2019-01-17T12:55:24.318Z,5.499878
2019-01-17T12:58:52.213Z,5.499878
2019-01-17T13:02:20.092Z,5.479736
2019-01-17T13:05:47.981Z,5.499878
2019-01-17T13:09:15.874Z,5.52002
2019-01-17T13:12:44.803Z,5.52002
2019-01-17T13:16:12.685Z,5.509949
2019-01-17T13:19:40.970Z,5.479736
2019-01-17T13:23:08.462Z,5.479736
2019-01-17T13:26:36.338Z,5.439453
2019-01-17T13:30:04.225Z,5.469666
2019-01-17T13:33:33.105Z,5.409241
2019-01-17T13:37:01.972Z,5.39917
2019-01-17T13:40:29.860Z,5.409241
2019-01-17T13:43:59.738Z,5.429382
2019-01-17T13:47:27.608Z,5.469666
2019-01-17T13:50:55.495Z,5.499878
2019-01-17T13:54:23.387Z,5.570374
2019-01-17T13:57:51.257Z,5.620728
2019-01-17T14:01:19.148Z,5.671082
2019-01-17T14:04:47.035Z,5.661011
2019-01-17T14:08:14.907Z,5.610657
2019-01-17T14:11:42.796Z,5.620728
2019-01-17T14:15:10.685Z,5.620728
2019-01-17T14:18:38.553Z,5.590515
2019-01-17T14:22:06.442Z,5.590515
2019-01-17T14:25:34.332Z,5.610657
2019-01-17T14:29:02.208Z,5.620728
2019-01-17T14:32:30.099Z,5.580444
2019-01-17T14:35:57.976Z,5.550232
2019-01-17T14:39:25.865Z,5.550232
2019-01-17T14:42:55.746Z,5.52002
2019-01-17T14:46:23.657Z,5.509949
2019-01-17T14:49:51.564Z,5.509949
2019-01-17T14:53:19.831Z,5.479736
2019-01-17T14:56:47.689Z,5.469666
2019-01-17T15:00:15.561Z,5.469666
2019-01-17T15:03:44.257Z,5.439453
2019-01-17T15:07:13.135Z,5.439453
2019-01-17T15:10:41.013Z,5.429382
2019-01-17T15:14:09.902Z,5.439453
2019-01-17T15:17:37.789Z,5.39917
2019-01-17T15:21:05.657Z,5.389099
2019-01-17T15:24:33.618Z,5.368958
2019-01-17T15:28:02.123Z,5.368958
2019-01-17T15:31:29.989Z,5.389099
2019-01-17T15:34:57.897Z,5.358887
2019-01-17T15:38:25.785Z,5.338745
2019-01-17T15:41:53.656Z,5.338745
2019-01-17T15:45:21.544Z,5.288391
2019-01-17T15:48:49.437Z,5.26825
2019-01-17T15:52:17.309Z,5.26825
2019-01-17T15:55:45.204Z,5.248108
2019-01-17T15:59:13.092Z,5.248108
2019-01-17T16:02:43.945Z,5.238037
2019-01-17T16:06:11.814Z,5.207825
2019-01-17T16:09:39.718Z,5.157471
2019-01-17T16:13:07.622Z,5.107117
2019-01-17T16:16:35.491Z,4.996338
2019-01-17T16:20:04.376Z,4.885559
2019-01-17T16:23:32.262Z,4.825134
2019-01-17T16:27:00.142Z,4.794922
2019-01-17T16:30:28.019Z,4.714355
2019-01-17T16:33:55.899Z,4.633789
2019-01-17T16:37:23.761Z,4.563293
2019-01-17T16:40:51.652Z,4.563293
2019-01-17T16:44:19.545Z,4.563293
2019-01-17T16:47:47.411Z,4.452515
2019-01-17T16:51:16.392Z,4.311523
2019-01-17T16:54:44.287Z,4.170532
2019-01-17T16:58:12.160Z,4.100037
2019-01-17T17:01:40.059Z,4.059753
2019-01-17T17:05:07.953Z,3.989258
2019-01-17T17:08:35.867Z,3.868408
2019-01-17T17:12:03.861Z,3.777771
2019-01-17T17:15:31.752Z,3.727417
2019-01-17T17:18:59.639Z,3.717346
2019-01-17T17:22:27.540Z,3.777771
2019-01-17T17:25:55.427Z,3.757629
2019-01-17T17:29:23.302Z,3.727417
2019-01-17T17:32:51.202Z,3.63678
2019-01-17T17:36:19.099Z,3.536072
2019-01-17T17:39:46.975Z,3.475647
2019-01-17T17:43:14.870Z,3.405151
2019-01-17T17:46:42.770Z,3.354797
2019-01-17T17:50:10.637Z,3.274231
2019-01-17T17:53:38.556Z,3.26416
2019-01-17T17:57:06.438Z,3.354797
2019-01-17T18:00:34.309Z,3.334656
2019-01-17T18:04:02.222Z,3.203735
2019-01-17T18:07:30.115Z,3.113098
2019-01-17T18:10:58.007Z,3.072815
2019-01-17T18:14:25.880Z,3.022461
2019-01-17T18:17:53.775Z,2.962036
2019-01-17T18:21:21.667Z,2.911682
2019-01-17T18:24:49.554Z,2.911682
2019-01-17T18:28:17.436Z,2.941895
2019-01-17T18:31:45.328Z,2.941895
2019-01-17T18:35:13.212Z,2.901611
2019-01-17T18:38:41.133Z,2.911682
2019-01-17T18:42:09.035Z,2.891541
2019-01-17T18:45:36.907Z,2.891541
2019-01-17T18:49:04.797Z,2.821045
2019-01-17T18:52:33.681Z,2.821045
2019-01-17T18:56:01.579Z,2.810974
2019-01-17T18:59:29.473Z,2.750549
2019-01-17T19:02:57.376Z,2.659912
2019-01-17T19:06:25.251Z,2.690125
2019-01-17T19:09:54.135Z,2.659912
2019-01-17T19:13:22.032Z,2.549133
2019-01-17T19:16:49.917Z,2.478638
2019-01-17T19:20:17.817Z,2.448425
2019-01-17T19:23:45.713Z,2.398071
2019-01-17T19:27:13.626Z,2.367859
2019-01-17T19:30:41.511Z,2.327576
2019-01-17T19:34:09.407Z,2.297363
2019-01-17T19:37:37.288Z,2.317505
2019-01-17T19:41:05.179Z,2.287292
2019-01-17T19:44:34.055Z,2.216797
2019-01-17T19:48:01.920Z,2.176514
2019-01-17T19:51:29.806Z,2.116089
2019-01-17T19:54:57.707Z,2.00531
2019-01-17T19:58:29.010Z,1.954956
2019-01-17T20:01:55.451Z,1.844177
2019-01-17T20:05:23.350Z,1.894531
2019-01-17T20:08:51.231Z,1.914673
2019-01-17T20:12:20.138Z,1.924744
2019-01-17T20:15:48.042Z,1.894531
2019-01-17T20:19:16.911Z,1.914673
2019-01-17T20:22:44.811Z,1.924744
2019-01-17T20:26:12.725Z,1.844177
2019-01-17T20:29:40.606Z,1.75354
2019-01-17T20:33:09.417Z,1.642761
2019-01-17T20:36:37.956Z,1.693115
2019-01-17T20:40:05.912Z,1.642761
2019-01-17T20:43:33.970Z,1.572266
2019-01-17T20:47:01.917Z,1.562195
2019-01-17T20:50:29.825Z,1.562195
2019-01-17T20:53:57.914Z,1.602478
2019-01-17T20:57:27.040Z,1.662903
2019-01-17T21:00:55.824Z,1.662903
2019-01-17T21:04:23.697Z,1.642761
2019-01-17T21:07:51.661Z,1.642761
2019-01-17T21:11:19.578Z,1.662903
2019-01-17T21:14:47.501Z,1.63269
2019-01-17T21:18:15.831Z,1.62262
2019-01-17T21:21:44.810Z,1.602478
2019-01-17T21:25:12.738Z,1.572266
2019-01-17T21:28:40.661Z,1.521912
2019-01-17T21:32:11.539Z,1.451416
2019-01-17T21:35:39.431Z,1.38092
2019-01-17T21:39:07.324Z,1.340637
2019-01-17T21:42:35.216Z,1.310425
2019-01-17T21:46:03.108Z,1.310425
2019-01-17T21:49:30.990Z,1.199646
2019-01-17T21:52:59.897Z,1.159363
2019-01-17T21:56:27.789Z,1.159363
2019-01-17T21:59:55.663Z,1.11908
2019-01-17T22:03:23.558Z,1.159363
2019-01-17T22:06:51.440Z,1.11908
2019-01-17T22:10:19.309Z,1.088867
2019-01-17T22:13:48.193Z,1.088867
2019-01-17T22:17:17.065Z,1.058655
2019-01-17T22:20:44.966Z,1.078796
2019-01-17T22:24:12.860Z,1.058655
2019-01-17T22:27:40.732Z,1.058655
2019-01-17T22:31:08.654Z,1.028442
2019-01-17T22:34:36.566Z,1.048584
2019-01-17T22:38:04.472Z,1.058655
2019-01-17T22:41:32.357Z,1.048584
2019-01-17T22:45:00.270Z,1.028442
2019-01-17T22:48:28.163Z,1.048584
2019-01-17T22:51:56.046Z,1.048584
2019-01-17T22:55:23.933Z,1.058655
2019-01-17T22:58:51.823Z,1.088867
